Terminal Aerodrome Forecast
Issued by NWS Mobile, AL

Home | Current Version | Previous Version | Text Only | Print | Product List | Glossary On
Versions: 1 2 3 4 5 6 7 8 9 10 11 12 13 14 15 16 17 18 19 20 21 22 23 24 25 26 27
000
FTUS44 KMOB 051120
TAFMOB
TAF
KMOB 051120Z 0512/0612 30004KT P6SM FEW250
     FM051600 06005KT P6SM VCSH FEW030 SCT250
     FM052000 16007KT P6SM VCTS SCT035CB
     FM060200 VRB03KT P6SM FEW040 SCT250
     FM060800 VRB03KT 5SM BR FEW010=

USA.gov is the U.S. government's official web portal to all federal, state and local government web resources and services.